createdAt,value
2023-01-22T00:01:08.722Z,-2.80
2023-01-22T00:03:36.315Z,-2.80
2023-01-22T00:06:03.009Z,-2.80
2023-01-22T00:08:29.681Z,-2.80
2023-01-22T00:10:56.372Z,-2.80
2023-01-22T00:13:23.822Z,-2.80
2023-01-22T00:15:50.597Z,-2.80
2023-01-22T00:18:17.341Z,-2.80
2023-01-22T00:20:48.437Z,-2.80
2023-01-22T00:23:15.327Z,-2.70
2023-01-22T00:25:42.418Z,-2.70
2023-01-22T00:28:09.105Z,-2.70
2023-01-22T00:30:35.739Z,-2.70
2023-01-22T00:33:02.332Z,-2.70
2023-01-22T00:35:28.972Z,-2.70
2023-01-22T00:37:55.590Z,-2.70
2023-01-22T00:40:22.259Z,-2.70
2023-01-22T00:42:48.886Z,-2.60
2023-01-22T00:45:15.678Z,-2.60
2023-01-22T00:47:42.308Z,-2.70
2023-01-22T00:50:09.840Z,-2.70
2023-01-22T00:52:37.754Z,-2.60
2023-01-22T00:55:05.215Z,-2.60
2023-01-22T00:57:32.007Z,-2.60
2023-01-22T00:59:58.601Z,-2.60
2023-01-22T01:02:25.220Z,-2.60
2023-01-22T01:04:51.811Z,-2.60
2023-01-22T01:07:18.407Z,-2.60
2023-01-22T01:09:45.002Z,-2.60
2023-01-22T01:12:11.621Z,-2.60
2023-01-22T01:14:38.219Z,-2.60
2023-01-22T01:17:04.927Z,-2.60
2023-01-22T01:19:31.616Z,-2.60
2023-01-22T01:21:58.263Z,-2.60
2023-01-22T01:24:24.883Z,-2.70
2023-01-22T01:26:51.488Z,-2.60
2023-01-22T01:29:18.871Z,-2.70
2023-01-22T01:31:45.802Z,-2.60
2023-01-22T01:34:13.483Z,-2.70
2023-01-22T01:36:48.720Z,-2.70
2023-01-22T01:39:15.937Z,-2.70
2023-01-22T01:41:42.578Z,-2.70
2023-01-22T01:44:21.725Z,-2.70
2023-01-22T01:46:50.095Z,-2.80
2023-01-22T01:49:38.783Z,-2.80
2023-01-22T01:52:08.304Z,-2.70
2023-01-22T01:54:34.958Z,-2.70
2023-01-22T01:57:08.345Z,-2.80
2023-01-22T01:59:35.127Z,-2.70
2023-01-22T02:02:01.997Z,-2.80
2023-01-22T02:04:28.694Z,-2.80
2023-01-22T02:06:55.315Z,-2.80
2023-01-22T02:09:21.954Z,-2.80
2023-01-22T02:11:49.710Z,-2.80
2023-01-22T02:14:18.426Z,-2.80
2023-01-22T02:16:45.037Z,-2.80
2023-01-22T02:19:11.673Z,-2.80
2023-01-22T02:21:42.973Z,-2.80
2023-01-22T02:24:14.588Z,-2.80
2023-01-22T02:26:41.918Z,-2.80
2023-01-22T02:29:09.298Z,-2.80
2023-01-22T02:31:36.639Z,-2.90
2023-01-22T02:34:03.310Z,-2.90
2023-01-22T02:36:30.636Z,-2.80
2023-01-22T02:38:57.398Z,-2.80
2023-01-22T02:41:24.021Z,-2.90
2023-01-22T02:43:50.632Z,-2.90
2023-01-22T02:46:17.517Z,-2.90
2023-01-22T02:48:44.111Z,-2.90
2023-01-22T02:51:10.832Z,-2.90
2023-01-22T02:53:37.460Z,-2.90
2023-01-22T02:56:08.153Z,-2.90
2023-01-22T02:58:34.951Z,-2.90
2023-01-22T03:01:18.684Z,-2.90
2023-01-22T03:03:58.482Z,-2.90
2023-01-22T03:06:26.345Z,-2.90
2023-01-22T03:08:57.621Z,-2.90
2023-01-22T03:11:25.213Z,-2.90
2023-01-22T03:14:11.239Z,-2.90
2023-01-22T03:16:56.449Z,-2.90
2023-01-22T03:19:41.821Z,-2.80
2023-01-22T03:22:08.588Z,-2.90
2023-01-22T03:24:35.293Z,-2.90
2023-01-22T03:27:02.103Z,-2.90
2023-01-22T03:29:28.715Z,-2.80
2023-01-22T03:31:55.390Z,-2.90
2023-01-22T03:34:22.675Z,-2.90
2023-01-22T03:36:49.328Z,-2.90
2023-01-22T03:39:15.958Z,-2.90
2023-01-22T03:41:42.566Z,-2.90
2023-01-22T03:44:14.073Z,-2.90
2023-01-22T03:46:40.763Z,-2.90
2023-01-22T03:49:07.922Z,-2.90
2023-01-22T03:51:34.636Z,-2.90
2023-01-22T03:54:01.246Z,-2.90
2023-01-22T03:56:28.107Z,-2.90
2023-01-22T03:58:54.709Z,-2.90
2023-01-22T04:01:22.945Z,-2.90
2023-01-22T04:03:50.005Z,-2.90
2023-01-22T04:06:17.077Z,-2.90
2023-01-22T04:08:44.469Z,-2.90
2023-01-22T04:11:11.262Z,-2.90
2023-01-22T04:13:38.840Z,-2.90
2023-01-22T04:16:05.976Z,-2.90
2023-01-22T04:18:32.573Z,-3.00
2023-01-22T04:20:59.208Z,-3.00
2023-01-22T04:23:25.978Z,-2.90
2023-01-22T04:25:52.631Z,-2.90
2023-01-22T04:28:19.307Z,-2.90
2023-01-22T04:30:46.875Z,-2.90
2023-01-22T04:33:13.646Z,-2.90
2023-01-22T04:35:40.354Z,-2.90
2023-01-22T04:38:07.526Z,-2.90
2023-01-22T04:40:34.150Z,-2.90
2023-01-22T04:43:04.440Z,-2.90
2023-01-22T04:45:31.030Z,-2.90
2023-01-22T04:47:57.692Z,-2.90
2023-01-22T04:50:27.737Z,-2.90
2023-01-22T04:52:55.167Z,-2.90
2023-01-22T04:55:22.151Z,-2.90
2023-01-22T04:57:48.785Z,-2.90
2023-01-22T05:00:16.224Z,-3.00
2023-01-22T05:02:43.034Z,-2.90
2023-01-22T05:05:09.900Z,-3.00
2023-01-22T05:07:36.548Z,-3.00
2023-01-22T05:10:03.229Z,-3.00
2023-01-22T05:12:29.853Z,-2.90
2023-01-22T05:14:56.500Z,-2.90
2023-01-22T05:17:23.160Z,-2.90
2023-01-22T05:19:49.756Z,-2.90
2023-01-22T05:22:16.372Z,-2.90
2023-01-22T05:24:42.970Z,-2.90
2023-01-22T05:27:09.622Z,-2.90
2023-01-22T05:29:36.224Z,-3.00
2023-01-22T05:32:02.943Z,-3.00
2023-01-22T05:34:29.539Z,-2.90
2023-01-22T05:36:56.138Z,-2.90
2023-01-22T05:39:24.173Z,-2.90
2023-01-22T05:41:50.926Z,-2.90
2023-01-22T05:44:17.522Z,-2.90
2023-01-22T05:46:44.150Z,-2.90
2023-01-22T05:49:10.763Z,-2.90
2023-01-22T05:51:37.404Z,-2.90
2023-01-22T05:54:04.096Z,-3.00
2023-01-22T05:56:31.633Z,-2.90
2023-01-22T05:58:58.280Z,-2.90
2023-01-22T06:01:24.933Z,-2.90
2023-01-22T06:03:52.226Z,-2.90
2023-01-22T06:06:18.938Z,-2.90
2023-01-22T06:08:46.937Z,-2.90
2023-01-22T06:11:14.879Z,-2.90
2023-01-22T06:13:41.739Z,-2.90
2023-01-22T06:16:08.534Z,-2.90
2023-01-22T06:18:35.308Z,-2.90
2023-01-22T06:21:03.302Z,-2.90
2023-01-22T06:23:30.013Z,-2.90
2023-01-22T06:25:57.853Z,-3.00
2023-01-22T06:28:24.695Z,-3.00
2023-01-22T06:30:52.277Z,-3.00
2023-01-22T06:33:18.926Z,-3.00
2023-01-22T06:35:45.527Z,-3.00
2023-01-22T06:38:12.117Z,-3.00
2023-01-22T06:40:38.731Z,-2.90
2023-01-22T06:43:05.808Z,-2.90
2023-01-22T06:45:32.640Z,-2.90
2023-01-22T06:47:59.263Z,-2.90
2023-01-22T06:50:25.974Z,-2.90
2023-01-22T06:52:52.607Z,-2.90
2023-01-22T06:55:19.239Z,-2.90
2023-01-22T06:57:45.876Z,-2.90
2023-01-22T07:00:12.776Z,-2.90
2023-01-22T07:02:39.412Z,-2.90
2023-01-22T07:05:06.218Z,-3.00
2023-01-22T07:07:32.849Z,-3.00
2023-01-22T07:09:59.478Z,-2.90
2023-01-22T07:12:26.170Z,-2.90
2023-01-22T07:14:52.765Z,-2.90
2023-01-22T07:17:19.365Z,-2.90
2023-01-22T07:19:46.001Z,-2.90
2023-01-22T07:22:12.626Z,-2.90
2023-01-22T07:24:39.221Z,-2.90
2023-01-22T07:27:05.845Z,-2.90
2023-01-22T07:29:32.463Z,-3.00
2023-01-22T07:31:59.178Z,-2.90
2023-01-22T07:34:25.776Z,-2.90
2023-01-22T07:36:52.638Z,-2.90
2023-01-22T07:39:19.266Z,-2.90
2023-01-22T07:41:45.871Z,-2.90
2023-01-22T07:44:12.508Z,-2.80
2023-01-22T07:46:39.314Z,-2.80
2023-01-22T07:49:06.314Z,-2.80
2023-01-22T07:51:32.926Z,-2.80
2023-01-22T07:53:59.549Z,-2.80
2023-01-22T07:56:26.179Z,-2.80
2023-01-22T07:58:52.796Z,-2.80
2023-01-22T08:01:19.423Z,-2.70
2023-01-22T08:03:46.063Z,-2.70
2023-01-22T08:06:15.510Z,-2.70
2023-01-22T08:08:42.618Z,-2.70
2023-01-22T08:11:09.271Z,-2.70
2023-01-22T08:13:35.880Z,-2.60
2023-01-22T08:16:02.577Z,-2.60
2023-01-22T08:18:29.337Z,-2.60
2023-01-22T08:20:55.954Z,-2.50
2023-01-22T08:23:22.718Z,-2.50
2023-01-22T08:25:49.331Z,-2.40
2023-01-22T08:28:15.943Z,-2.40
2023-01-22T08:30:46.404Z,-2.50
2023-01-22T08:33:15.558Z,-2.40
2023-01-22T08:35:42.189Z,-2.40
2023-01-22T08:38:08.833Z,-2.40
2023-01-22T08:40:37.794Z,-2.40
2023-01-22T08:43:04.628Z,-2.40
2023-01-22T08:45:31.302Z,-2.40
2023-01-22T08:47:59.732Z,-2.50
2023-01-22T08:50:27.259Z,-2.50
2023-01-22T08:52:56.705Z,-2.40
2023-01-22T08:55:23.610Z,-2.40
2023-01-22T08:57:57.540Z,-2.40
2023-01-22T09:00:24.430Z,-2.40
2023-01-22T09:02:51.192Z,-2.40
2023-01-22T09:05:17.844Z,-2.40
2023-01-22T09:07:44.478Z,-2.30
2023-01-22T09:10:12.885Z,-2.30
2023-01-22T09:12:40.244Z,-2.30
2023-01-22T09:15:07.693Z,-2.30
2023-01-22T09:17:34.319Z,-2.30
2023-01-22T09:20:00.993Z,-2.30
2023-01-22T09:22:27.621Z,-2.20
2023-01-22T09:24:54.926Z,-2.20
2023-01-22T09:27:21.539Z,-2.20
2023-01-22T09:29:48.854Z,-2.20
2023-01-22T09:32:15.648Z,-2.20
2023-01-22T09:34:42.236Z,-2.20
2023-01-22T09:37:11.044Z,-2.20
2023-01-22T09:39:37.731Z,-2.10
2023-01-22T09:42:04.437Z,-2.00
2023-01-22T09:44:41.725Z,-2.00
2023-01-22T09:47:37.595Z,-1.90
2023-01-22T09:50:21.707Z,-1.90
2023-01-22T09:52:49.299Z,-1.90
2023-01-22T09:55:17.787Z,-1.80
2023-01-22T09:57:48.944Z,-1.80
2023-01-22T10:00:38.080Z,-1.90
2023-01-22T10:03:16.787Z,-1.90
2023-01-22T10:05:46.616Z,-1.90
2023-01-22T10:08:18.070Z,-1.90
2023-01-22T10:10:44.726Z,-1.90
2023-01-22T10:13:23.467Z,-2.10
2023-01-22T10:15:52.100Z,-2.10
2023-01-22T10:18:37.534Z,-2.10
2023-01-22T10:21:05.751Z,-2.00
2023-01-22T10:23:33.644Z,-2.00
2023-01-22T10:26:07.403Z,-1.90
2023-01-22T10:28:35.078Z,-1.70
2023-01-22T10:31:04.288Z,-1.70
2023-01-22T10:33:30.928Z,-1.60
2023-01-22T10:35:57.583Z,-1.50
2023-01-22T10:38:29.913Z,-1.40
2023-01-22T10:41:03.690Z,-1.20
2023-01-22T10:43:35.253Z,-1.20
2023-01-22T10:46:11.908Z,-1.30
2023-01-22T10:48:38.537Z,-1.10
2023-01-22T10:51:16.044Z,-1.20
2023-01-22T10:53:51.831Z,-1.20
2023-01-22T10:56:32.845Z,-0.90
2023-01-22T10:59:02.190Z,-0.80
2023-01-22T11:01:34.947Z,-0.80
2023-01-22T11:04:14.959Z,-0.60
2023-01-22T11:06:44.737Z,-0.80
2023-01-22T11:09:17.864Z,-0.70
2023-01-22T11:11:50.874Z,-0.90
2023-01-22T11:14:23.648Z,-0.80
2023-01-22T11:16:51.939Z,-0.70
2023-01-22T11:19:32.615Z,-0.80
2023-01-22T11:22:02.825Z,-0.90
2023-01-22T11:24:42.684Z,-1.00
2023-01-22T11:27:33.960Z,-1.20
2023-01-22T11:30:09.578Z,-1.10
2023-01-22T11:32:57.589Z,-1.10
2023-01-22T11:35:36.284Z,-1.20
2023-01-22T11:38:40.599Z,-1.10
2023-01-22T11:41:19.151Z,-1.20
2023-01-22T11:43:55.489Z,-1.10
2023-01-22T11:46:36.618Z,-1.10
2023-01-22T11:49:44.027Z,-1.20
2023-01-22T11:52:16.509Z,-1.20
2023-01-22T11:55:05.057Z,-1.20
2023-01-22T11:57:46.144Z,-1.20
2023-01-22T12:00:25.769Z,-1.30
2023-01-22T12:03:10.434Z,-1.10
2023-01-22T12:06:31.419Z,-1.30
2023-01-22T12:09:23.284Z,-1.30
2023-01-22T12:12:04.586Z,-1.30
2023-01-22T12:14:31.164Z,-1.20
2023-01-22T12:17:09.831Z,-1.10
2023-01-22T12:19:42.280Z,-1.20
2023-01-22T12:22:31.967Z,-1.30
2023-01-22T12:25:23.717Z,-1.20
2023-01-22T12:28:00.014Z,-1.20
2023-01-22T12:30:49.585Z,-1.30
2023-01-22T12:33:20.467Z,-1.30
2023-01-22T12:35:49.135Z,-1.50
2023-01-22T12:38:32.127Z,-1.50
2023-01-22T12:41:12.714Z,-1.40
2023-01-22T12:43:54.397Z,-1.50
2023-01-22T12:46:39.144Z,-1.60
2023-01-22T12:49:10.248Z,-1.60
2023-01-22T12:51:46.814Z,-1.60
2023-01-22T12:54:28.824Z,-1.60
2023-01-22T12:56:57.629Z,-1.70
2023-01-22T12:59:30.632Z,-1.50
2023-01-22T13:02:03.641Z,-1.50
2023-01-22T13:04:31.629Z,-1.60
2023-01-22T13:07:18.854Z,-1.70
2023-01-22T13:09:45.448Z,-1.90
2023-01-22T13:12:25.619Z,-1.70
2023-01-22T13:14:52.215Z,-1.90
2023-01-22T13:17:24.729Z,-1.80
2023-01-22T13:19:51.453Z,-1.80
2023-01-22T13:22:22.990Z,-1.80
2023-01-22T13:24:54.003Z,-1.70
2023-01-22T13:27:23.708Z,-1.80
2023-01-22T13:29:50.361Z,-1.70
2023-01-22T13:32:19.277Z,-1.70
2023-01-22T13:34:46.146Z,-1.80
2023-01-22T13:37:22.807Z,-1.80
2023-01-22T13:39:49.399Z,-1.80
2023-01-22T13:42:16.208Z,-1.70
2023-01-22T13:44:48.921Z,-1.90
2023-01-22T13:47:21.062Z,-1.80
2023-01-22T13:49:47.673Z,-1.90
2023-01-22T13:52:15.849Z,-1.90
2023-01-22T13:55:06.975Z,-2.00
2023-01-22T13:57:33.679Z,-2.00
2023-01-22T14:00:01.582Z,-2.00
2023-01-22T14:03:21.846Z,-1.90
2023-01-22T14:05:50.237Z,-1.80
2023-01-22T14:08:17.005Z,-1.90
2023-01-22T14:10:43.872Z,-2.00
2023-01-22T14:13:11.886Z,-2.00
2023-01-22T14:15:39.197Z,-2.00
2023-01-22T14:18:14.239Z,-2.00
2023-01-22T14:20:41.724Z,-2.10
2023-01-22T14:23:08.451Z,-2.10
2023-01-22T14:25:42.956Z,-2.20
2023-01-22T14:28:09.659Z,-2.10
2023-01-22T14:30:36.388Z,-2.10
2023-01-22T14:33:03.211Z,-2.20
2023-01-22T14:35:29.942Z,-2.10
2023-01-22T14:37:56.740Z,-2.00
2023-01-22T14:40:25.039Z,-2.00
2023-01-22T14:42:51.799Z,-2.00
2023-01-22T14:45:19.257Z,-2.10
2023-01-22T14:47:49.225Z,-2.00
2023-01-22T14:50:16.475Z,-2.10
2023-01-22T14:52:43.177Z,-2.10
2023-01-22T14:55:09.968Z,-2.00
2023-01-22T14:57:36.615Z,-2.00
2023-01-22T15:00:04.106Z,-2.00
2023-01-22T15:02:30.764Z,-1.90
2023-01-22T15:04:57.672Z,-2.00
2023-01-22T15:07:24.293Z,-2.10
2023-01-22T15:09:50.895Z,-2.10
2023-01-22T15:12:17.572Z,-2.10
2023-01-22T15:14:44.233Z,-2.20
2023-01-22T15:17:10.854Z,-2.20
2023-01-22T15:19:41.526Z,-2.20
2023-01-22T15:22:08.804Z,-2.10
2023-01-22T15:24:35.411Z,-2.20
2023-01-22T15:27:02.079Z,-2.10
2023-01-22T15:29:28.729Z,-2.10
2023-01-22T15:31:55.406Z,-2.10
2023-01-22T15:34:22.204Z,-2.10
2023-01-22T15:36:48.822Z,-2.10
2023-01-22T15:39:15.582Z,-2.10
2023-01-22T15:41:42.531Z,-2.00
2023-01-22T15:44:10.959Z,-2.10
2023-01-22T15:46:38.873Z,-2.20
2023-01-22T15:49:08.028Z,-2.10
2023-01-22T15:51:35.255Z,-2.10
2023-01-22T15:54:03.015Z,-2.20
2023-01-22T15:56:32.891Z,-2.10
2023-01-22T15:58:59.576Z,-2.10
2023-01-22T16:01:26.547Z,-2.10
2023-01-22T16:03:53.359Z,-2.10
2023-01-22T16:06:24.669Z,-2.20
2023-01-22T16:08:52.290Z,-2.20
2023-01-22T16:11:19.508Z,-2.10
2023-01-22T16:13:46.233Z,-2.10
2023-01-22T16:16:33.173Z,-2.10
2023-01-22T16:19:00.819Z,-2.20
2023-01-22T16:21:27.588Z,-2.10
2023-01-22T16:23:56.808Z,-2.10
2023-01-22T16:26:25.624Z,-2.10
2023-01-22T16:28:53.139Z,-2.20
2023-01-22T16:31:23.064Z,-2.10
2023-01-22T16:33:57.396Z,-2.20
2023-01-22T16:36:25.776Z,-2.20
2023-01-22T16:38:52.486Z,-2.20
2023-01-22T16:41:24.334Z,-2.10
2023-01-22T16:43:58.595Z,-2.20
2023-01-22T16:46:27.375Z,-2.20
2023-01-22T16:48:58.788Z,-2.20
2023-01-22T16:51:26.151Z,-2.20
2023-01-22T16:53:53.026Z,-2.20
2023-01-22T16:56:19.672Z,-2.20
2023-01-22T16:58:46.289Z,-2.10
2023-01-22T17:01:13.542Z,-2.20
2023-01-22T17:03:40.301Z,-2.20
2023-01-22T17:06:07.186Z,-2.20
2023-01-22T17:08:33.789Z,-2.10
2023-01-22T17:11:00.462Z,-2.20
2023-01-22T17:13:29.575Z,-2.10
2023-01-22T17:15:56.270Z,-2.10
2023-01-22T17:18:22.923Z,-2.10
2023-01-22T17:21:01.557Z,-2.10
2023-01-22T17:23:28.386Z,-2.10
2023-01-22T17:25:55.006Z,-2.10
2023-01-22T17:28:22.034Z,-2.10
2023-01-22T17:30:48.968Z,-2.00
2023-01-22T17:33:15.813Z,-2.10
2023-01-22T17:35:42.397Z,-2.00
2023-01-22T17:38:10.426Z,-2.10
2023-01-22T17:40:37.396Z,-2.10
2023-01-22T17:43:04.143Z,-2.00
2023-01-22T17:45:30.754Z,-2.10
2023-01-22T17:47:57.685Z,-2.10
2023-01-22T17:50:24.313Z,-2.00
2023-01-22T17:52:50.981Z,-2.00
2023-01-22T17:55:17.869Z,-2.00
2023-01-22T17:57:44.662Z,-2.10
2023-01-22T18:00:11.894Z,-2.00
2023-01-22T18:02:38.552Z,-2.00
2023-01-22T18:05:05.653Z,-2.10
2023-01-22T18:07:32.274Z,-2.00
2023-01-22T18:09:58.896Z,-2.10
2023-01-22T18:12:25.542Z,-2.10
2023-01-22T18:14:52.143Z,-2.10
2023-01-22T18:17:18.744Z,-2.00
2023-01-22T18:19:45.344Z,-2.00
2023-01-22T18:22:11.959Z,-2.00
2023-01-22T18:24:38.560Z,-2.00
2023-01-22T18:27:06.542Z,-2.00
2023-01-22T18:29:33.135Z,-2.10
2023-01-22T18:31:59.826Z,-2.00
2023-01-22T18:34:26.442Z,-2.00
2023-01-22T18:36:53.081Z,-2.10
2023-01-22T18:39:20.643Z,-2.00
2023-01-22T18:41:47.321Z,-2.00
2023-01-22T18:44:14.980Z,-2.00
2023-01-22T18:46:44.987Z,-2.10
2023-01-22T18:49:12.797Z,-2.00
2023-01-22T18:51:41.857Z,-2.00
2023-01-22T18:54:08.502Z,-2.00
2023-01-22T18:56:35.663Z,-2.00
2023-01-22T18:59:02.290Z,-2.00
2023-01-22T19:01:30.766Z,-2.00
2023-01-22T19:03:59.639Z,-2.00
2023-01-22T19:06:28.190Z,-2.00
2023-01-22T19:09:06.978Z,-1.90
2023-01-22T19:11:35.310Z,-2.00
2023-01-22T19:14:03.012Z,-2.00
2023-01-22T19:16:30.164Z,-2.00
2023-01-22T19:18:58.328Z,-2.00
2023-01-22T19:21:25.451Z,-2.00
2023-01-22T19:23:53.854Z,-1.90
2023-01-22T19:26:27.160Z,-1.90
2023-01-22T19:28:55.961Z,-2.00
2023-01-22T19:31:24.655Z,-2.00
2023-01-22T19:33:52.515Z,-1.90
2023-01-22T19:36:19.442Z,-1.90
2023-01-22T19:38:46.084Z,-1.90
2023-01-22T19:41:12.804Z,-2.00
2023-01-22T19:43:39.523Z,-2.00
2023-01-22T19:46:08.390Z,-1.90
2023-01-22T19:48:35.342Z,-1.90
2023-01-22T19:51:04.025Z,-1.90
2023-01-22T19:53:30.759Z,-1.90
2023-01-22T19:55:59.979Z,-1.90
2023-01-22T19:58:27.940Z,-1.90
2023-01-22T20:00:54.919Z,-1.90
2023-01-22T20:03:22.110Z,-1.90
2023-01-22T20:05:48.708Z,-1.90
2023-01-22T20:08:15.523Z,-1.90
2023-01-22T20:10:42.122Z,-1.90
2023-01-22T20:13:09.622Z,-1.80
2023-01-22T20:15:42.377Z,-1.80
2023-01-22T20:18:09.232Z,-1.90
2023-01-22T20:20:36.176Z,-1.80
2023-01-22T20:23:02.912Z,-1.80
2023-01-22T20:25:31.630Z,-1.80
2023-01-22T20:27:59.160Z,-1.80
2023-01-22T20:30:25.900Z,-1.80
2023-01-22T20:32:52.556Z,-1.80
2023-01-22T20:35:19.816Z,-1.80
2023-01-22T20:37:47.280Z,-1.80
2023-01-22T20:40:14.007Z,-1.80
2023-01-22T20:42:40.820Z,-1.80
2023-01-22T20:45:07.770Z,-1.80
2023-01-22T20:47:35.263Z,-1.80
2023-01-22T20:50:02.708Z,-1.80
2023-01-22T20:52:29.349Z,-1.80
2023-01-22T20:55:01.861Z,-1.80
2023-01-22T20:57:30.175Z,-1.80
2023-01-22T20:59:56.806Z,-1.80
2023-01-22T21:02:23.542Z,-1.80
2023-01-22T21:04:51.795Z,-1.80
2023-01-22T21:07:18.632Z,-1.80
2023-01-22T21:09:45.372Z,-1.80
2023-01-22T21:12:13.077Z,-1.80
2023-01-22T21:14:40.021Z,-1.80
2023-01-22T21:17:06.666Z,-1.70
2023-01-22T21:19:33.290Z,-1.70
2023-01-22T21:22:00.938Z,-1.70
2023-01-22T21:24:27.745Z,-1.70
2023-01-22T21:26:54.407Z,-1.70
2023-01-22T21:29:22.501Z,-1.70
2023-01-22T21:31:50.154Z,-1.70
2023-01-22T21:34:18.476Z,-1.70
2023-01-22T21:36:48.752Z,-1.70
2023-01-22T21:39:16.954Z,-1.70
2023-01-22T21:41:43.856Z,-1.70
2023-01-22T21:44:33.192Z,-1.60
2023-01-22T21:46:59.892Z,-1.70
2023-01-22T21:49:26.637Z,-1.70
2023-01-22T21:52:00.999Z,-1.70
2023-01-22T21:54:29.560Z,-1.60
2023-01-22T21:56:56.449Z,-1.60
2023-01-22T21:59:23.056Z,-1.70
2023-01-22T22:01:55.899Z,-1.60
2023-01-22T22:04:23.433Z,-1.60
2023-01-22T22:06:50.102Z,-1.70
2023-01-22T22:09:18.641Z,-1.60
2023-01-22T22:11:45.432Z,-1.70
2023-01-22T22:14:12.783Z,-1.60
2023-01-22T22:16:39.473Z,-1.70
2023-01-22T22:19:07.403Z,-1.60
2023-01-22T22:21:34.344Z,-1.60
2023-01-22T22:24:00.986Z,-1.60
2023-01-22T22:26:27.760Z,-1.60
2023-01-22T22:28:54.456Z,-1.60
2023-01-22T22:31:21.291Z,-1.60
2023-01-22T22:33:49.681Z,-1.60
2023-01-22T22:36:17.438Z,-1.60
2023-01-22T22:38:44.087Z,-1.60
2023-01-22T22:41:15.684Z,-1.60
2023-01-22T22:43:46.486Z,-1.60
2023-01-22T22:46:26.010Z,-1.60
2023-01-22T22:48:53.029Z,-1.50
2023-01-22T22:51:24.786Z,-1.50
2023-01-22T22:53:52.879Z,-1.50
2023-01-22T22:56:19.639Z,-1.60
2023-01-22T22:58:46.244Z,-1.50
2023-01-22T23:01:15.667Z,-1.60
2023-01-22T23:03:42.404Z,-1.60
2023-01-22T23:06:11.961Z,-1.50
2023-01-22T23:08:43.420Z,-1.50
2023-01-22T23:11:12.082Z,-1.50
2023-01-22T23:13:38.764Z,-1.60
2023-01-22T23:16:10.185Z,-1.50
2023-01-22T23:18:37.024Z,-1.50
2023-01-22T23:21:07.920Z,-1.50
2023-01-22T23:23:34.774Z,-1.50
2023-01-22T23:26:01.714Z,-1.50
2023-01-22T23:28:28.402Z,-1.50
2023-01-22T23:30:55.100Z,-1.50
2023-01-22T23:33:21.872Z,-1.50
2023-01-22T23:35:51.135Z,-1.50
2023-01-22T23:38:17.774Z,-1.40
2023-01-22T23:40:44.378Z,-1.50
2023-01-22T23:43:11.024Z,-1.50
2023-01-22T23:45:38.674Z,-1.50
2023-01-22T23:48:05.532Z,-1.50
2023-01-22T23:50:32.188Z,-1.50
2023-01-22T23:52:58.801Z,-1.50
2023-01-22T23:55:25.455Z,-1.40
2023-01-22T23:57:52.831Z,-1.40
